createdAt,value
2018-05-17T00:02:12.882Z,40.07
2018-05-17T00:04:41.081Z,39.70
2018-05-17T00:07:09.287Z,39.80
2018-05-17T00:09:37.492Z,40.07
2018-05-17T00:12:05.717Z,39.90
2018-05-17T00:14:33.939Z,39.80
2018-05-17T00:17:02.220Z,39.50
2018-05-17T00:19:30.471Z,39.93
2018-05-17T00:21:58.704Z,39.80
2018-05-17T00:24:26.962Z,39.90
2018-05-17T00:26:55.151Z,39.53
2018-05-17T00:29:23.368Z,39.67
2018-05-17T00:31:51.578Z,39.47
2018-05-17T00:34:19.804Z,39.17
2018-05-17T00:36:48.022Z,38.93
2018-05-17T00:39:16.227Z,39.53
2018-05-17T00:41:44.632Z,39.13
2018-05-17T00:44:13.627Z,40.13
2018-05-17T00:46:41.835Z,39.30
2018-05-17T00:49:10.036Z,40.37
2018-05-17T00:51:39.045Z,39.17
2018-05-17T00:54:07.261Z,39.57
2018-05-17T00:56:35.487Z,38.63
2018-05-17T00:59:03.797Z,39.67
2018-05-17T01:01:32.036Z,38.80
2018-05-17T01:04:00.215Z,40.00
2018-05-17T01:06:28.397Z,40.57
2018-05-17T01:08:58.246Z,39.57
2018-05-17T01:11:27.016Z,39.73
2018-05-17T01:13:56.036Z,39.67
2018-05-17T01:16:24.826Z,39.70
2018-05-17T01:18:54.562Z,39.43
2018-05-17T01:21:22.773Z,39.40
2018-05-17T01:23:51.052Z,39.40
2018-05-17T01:26:20.515Z,39.33
2018-05-17T01:28:49.535Z,38.83
2018-05-17T01:31:18.299Z,38.47
2018-05-17T01:33:46.798Z,39.80
2018-05-17T01:36:15.737Z,39.23
2018-05-17T01:38:44.663Z,39.50
2018-05-17T01:41:13.120Z,39.67
2018-05-17T01:43:41.687Z,39.97
2018-05-17T01:46:10.792Z,39.07
2018-05-17T01:48:38.971Z,38.83
2018-05-17T01:51:07.154Z,38.60
2018-05-17T01:53:36.269Z,39.27
2018-05-17T01:56:04.462Z,38.77
2018-05-17T01:58:32.780Z,39.07
2018-05-17T02:01:01.706Z,39.70
2018-05-17T02:03:30.708Z,38.57
2018-05-17T02:05:58.905Z,38.80
2018-05-17T02:08:27.081Z,38.83
2018-05-17T02:10:55.286Z,38.93
2018-05-17T02:13:23.464Z,39.13
2018-05-17T02:15:52.404Z,39.47
2018-05-17T02:18:20.597Z,39.07
2018-05-17T02:20:48.799Z,38.23
2018-05-17T02:23:16.985Z,38.60
2018-05-17T02:25:45.187Z,38.53
2018-05-17T02:28:13.370Z,38.60
2018-05-17T02:30:41.620Z,38.97
2018-05-17T02:33:09.822Z,38.07
2018-05-17T02:35:38.020Z,38.93
2018-05-17T02:38:06.202Z,38.70
2018-05-17T02:40:34.393Z,38.93
2018-05-17T02:43:05.899Z,38.20
2018-05-17T02:45:34.108Z,38.47
2018-05-17T02:48:02.289Z,38.50
2018-05-17T02:50:30.459Z,38.13
2018-05-17T02:52:58.665Z,38.67
2018-05-17T02:55:26.849Z,38.83
2018-05-17T02:57:55.377Z,38.73
2018-05-17T03:00:23.577Z,39.27
2018-05-17T03:02:52.540Z,38.93
2018-05-17T03:05:20.717Z,38.90
2018-05-17T03:07:48.911Z,38.10
2018-05-17T03:10:17.073Z,39.10
2018-05-17T03:12:45.261Z,37.93
2018-05-17T03:15:13.777Z,38.37
2018-05-17T03:17:41.962Z,39.10
2018-05-17T03:20:10.140Z,38.93
2018-05-17T03:22:38.343Z,38.50
2018-05-17T03:25:06.519Z,38.73
2018-05-17T03:27:34.696Z,38.63
2018-05-17T03:30:03.731Z,38.80
2018-05-17T03:32:31.906Z,38.27
2018-05-17T03:35:00.826Z,37.97
2018-05-17T03:37:29.018Z,39.03
2018-05-17T03:39:57.449Z,39.30
2018-05-17T03:42:26.605Z,38.80
2018-05-17T03:44:55.137Z,38.83
2018-05-17T03:47:24.138Z,39.40
2018-05-17T03:49:52.597Z,39.03
2018-05-17T03:52:20.816Z,38.50
2018-05-17T03:54:48.982Z,38.27
2018-05-17T03:57:17.157Z,38.70
2018-05-17T03:59:45.356Z,38.50
2018-05-17T04:02:31.285Z,39.10
2018-05-17T04:05:18.065Z,39.30
2018-05-17T04:07:47.056Z,38.63
2018-05-17T04:10:15.232Z,38.67
2018-05-17T04:12:43.439Z,38.53
2018-05-17T04:15:12.434Z,37.97
2018-05-17T04:17:41.885Z,38.73
2018-05-17T04:20:10.076Z,38.23
2018-05-17T04:22:38.248Z,38.50
2018-05-17T04:25:06.672Z,38.20
2018-05-17T04:27:34.884Z,39.23
2018-05-17T04:30:03.103Z,38.47
2018-05-17T04:32:31.664Z,38.67
2018-05-17T04:34:59.848Z,38.70
2018-05-17T04:37:28.020Z,38.50
2018-05-17T04:39:56.200Z,37.97
2018-05-17T04:42:24.403Z,38.23
2018-05-17T04:44:52.694Z,37.90
2018-05-17T04:47:20.861Z,38.87
2018-05-17T04:49:49.065Z,39.30
2018-05-17T04:52:17.259Z,38.60
2018-05-17T04:54:45.447Z,39.27
2018-05-17T04:57:14.043Z,39.70
2018-05-17T04:59:43.223Z,38.67
2018-05-17T05:02:11.396Z,39.30
2018-05-17T05:04:39.587Z,39.30
2018-05-17T05:07:07.885Z,39.60
2018-05-17T05:09:36.192Z,39.37
2018-05-17T05:12:04.721Z,39.70
2018-05-17T05:14:32.885Z,38.60
2018-05-17T05:17:01.063Z,38.63
2018-05-17T05:19:29.257Z,39.77
2018-05-17T05:21:57.932Z,39.00
2018-05-17T05:24:26.120Z,38.97
2018-05-17T05:26:55.753Z,39.23
2018-05-17T05:29:23.940Z,38.60
2018-05-17T05:31:52.716Z,39.27
2018-05-17T05:34:20.923Z,39.17
2018-05-17T05:36:49.934Z,39.53
2018-05-17T05:39:18.104Z,39.10
2018-05-17T05:41:46.307Z,38.97
2018-05-17T05:44:15.860Z,39.83
2018-05-17T05:46:44.393Z,39.87
2018-05-17T05:49:13.547Z,39.23
2018-05-17T05:51:41.706Z,39.30
2018-05-17T05:54:10.602Z,39.10
2018-05-17T05:56:39.979Z,38.40
2018-05-17T05:59:08.208Z,38.97
2018-05-17T06:01:36.664Z,39.20
2018-05-17T06:04:04.868Z,38.60
2018-05-17T06:06:33.041Z,39.60
2018-05-17T06:09:01.210Z,39.03
2018-05-17T06:11:29.441Z,39.03
2018-05-17T06:13:57.638Z,41.30
2018-05-17T06:16:25.810Z,41.20
2018-05-17T06:18:54.017Z,40.63
2018-05-17T06:21:22.192Z,39.97
2018-05-17T06:23:50.401Z,40.00
2018-05-17T06:26:18.613Z,40.10
2018-05-17T06:28:46.804Z,39.77
2018-05-17T06:31:14.984Z,40.13
2018-05-17T06:33:43.178Z,39.27
2018-05-17T06:36:12.074Z,39.90
2018-05-17T06:38:40.303Z,40.00
2018-05-17T06:41:09.365Z,39.93
2018-05-17T06:43:37.612Z,39.87
2018-05-17T06:46:06.482Z,39.23
2018-05-17T06:48:34.684Z,40.00
2018-05-17T06:51:04.312Z,40.73
2018-05-17T06:53:33.438Z,40.17
2018-05-17T06:56:02.469Z,39.30
2018-05-17T06:58:31.142Z,39.77
2018-05-17T07:01:00.139Z,60.87
2018-05-17T07:03:28.354Z,39.83
2018-05-17T07:05:58.272Z,39.87
2018-05-17T07:08:28.021Z,39.87
2018-05-17T07:10:56.860Z,39.87
2018-05-17T07:13:25.061Z,40.50
2018-05-17T07:15:53.257Z,40.00
2018-05-17T07:18:21.487Z,40.67
2018-05-17T07:20:51.399Z,40.07
2018-05-17T07:23:19.622Z,39.60
2018-05-17T07:25:48.919Z,39.73
2018-05-17T07:28:18.868Z,39.80
2018-05-17T07:30:47.063Z,40.00
2018-05-17T07:33:16.231Z,39.77
2018-05-17T07:35:47.476Z,39.70
2018-05-17T07:38:16.010Z,40.17
2018-05-17T07:40:44.194Z,39.17
2018-05-17T07:43:12.718Z,39.20
2018-05-17T07:45:41.208Z,39.93
2018-05-17T07:48:10.093Z,39.73
2018-05-17T07:50:38.271Z,39.37
2018-05-17T07:53:06.474Z,40.07
2018-05-17T07:55:34.690Z,39.93
2018-05-17T07:58:02.868Z,39.77
2018-05-17T08:00:35.028Z,40.43
2018-05-17T08:03:03.894Z,39.70
2018-05-17T08:05:32.733Z,40.13
2018-05-17T08:08:01.495Z,40.00
2018-05-17T08:10:32.345Z,40.13
2018-05-17T08:13:01.867Z,40.37
2018-05-17T08:15:30.888Z,40.10
2018-05-17T08:17:59.621Z,40.30
2018-05-17T08:20:28.694Z,40.27
2018-05-17T08:22:56.895Z,40.40
2018-05-17T08:25:26.197Z,39.40
2018-05-17T08:27:55.292Z,40.57
2018-05-17T08:30:23.690Z,39.53
2018-05-17T08:32:51.919Z,40.20
2018-05-17T08:35:20.960Z,40.13
2018-05-17T08:37:50.016Z,40.37
2018-05-17T08:40:18.596Z,40.97
2018-05-17T08:42:46.832Z,39.60
2018-05-17T08:45:15.008Z,39.90
2018-05-17T08:47:43.471Z,41.03
2018-05-17T08:50:12.377Z,40.63
2018-05-17T08:52:40.565Z,40.27
2018-05-17T08:55:08.821Z,40.97
2018-05-17T08:57:37.031Z,40.67
2018-05-17T09:00:05.928Z,39.70
2018-05-17T09:02:34.167Z,40.00
2018-05-17T09:05:02.390Z,41.27
2018-05-17T09:07:31.483Z,40.47
2018-05-17T09:09:59.777Z,40.87
2018-05-17T09:12:28.544Z,41.07
2018-05-17T09:14:57.228Z,40.90
2018-05-17T09:17:25.512Z,41.07
2018-05-17T09:19:53.782Z,41.17
2018-05-17T09:22:22.637Z,41.13
2018-05-17T09:24:50.876Z,41.47
2018-05-17T09:27:19.942Z,41.30
2018-05-17T09:29:49.736Z,41.33
2018-05-17T09:32:18.688Z,40.80
2018-05-17T09:34:46.889Z,41.60
2018-05-17T09:37:15.072Z,41.50
2018-05-17T09:39:44.400Z,41.13
2018-05-17T09:42:15.185Z,41.37
2018-05-17T09:44:43.373Z,41.37
2018-05-17T09:47:11.577Z,41.83
2018-05-17T09:49:40.707Z,40.87
2018-05-17T09:52:09.260Z,40.87
2018-05-17T09:54:37.433Z,41.20
2018-05-17T09:57:06.314Z,41.03
2018-05-17T09:59:34.495Z,41.87
2018-05-17T10:02:02.704Z,41.20
2018-05-17T10:04:32.128Z,41.97
2018-05-17T10:07:01.483Z,40.93
2018-05-17T10:09:30.551Z,40.40
2018-05-17T10:12:00.523Z,41.20
2018-05-17T10:14:31.076Z,41.23
2018-05-17T10:17:00.056Z,41.83
2018-05-17T10:19:29.907Z,41.13
2018-05-17T10:22:00.232Z,41.00
2018-05-17T10:24:29.789Z,40.73
2018-05-17T10:26:59.024Z,42.40
2018-05-17T10:29:27.439Z,42.03
2018-05-17T10:31:55.593Z,42.07
2018-05-17T10:34:23.791Z,41.33
2018-05-17T10:36:53.765Z,41.83
2018-05-17T10:39:21.977Z,41.80
2018-05-17T10:41:50.977Z,41.80
2018-05-17T10:44:22.078Z,41.53
2018-05-17T10:46:50.284Z,42.13
2018-05-17T10:49:19.376Z,42.13
2018-05-17T10:51:48.886Z,42.20
2018-05-17T10:54:18.532Z,42.40
2018-05-17T10:56:46.705Z,42.27
2018-05-17T10:59:15.855Z,41.77
2018-05-17T11:01:44.537Z,43.27
2018-05-17T11:04:13.165Z,41.67
2018-05-17T11:06:41.447Z,42.73
2018-05-17T11:09:10.647Z,42.10
2018-05-17T11:11:38.862Z,42.27
2018-05-17T11:14:09.064Z,42.07
2018-05-17T11:16:37.257Z,42.40
2018-05-17T11:19:06.033Z,42.73
2018-05-17T11:21:34.508Z,42.10
2018-05-17T11:24:03.790Z,42.30
2018-05-17T11:26:33.699Z,42.73
2018-05-17T11:29:02.281Z,42.30
2018-05-17T11:31:31.505Z,42.20
2018-05-17T11:33:59.839Z,41.77
2018-05-17T11:36:28.928Z,42.37
2018-05-17T11:38:57.614Z,42.97
2018-05-17T11:41:28.031Z,42.13
2018-05-17T11:43:57.451Z,41.93
2018-05-17T11:46:25.643Z,42.47
2018-05-17T11:48:54.117Z,43.00
2018-05-17T11:51:22.305Z,42.30
2018-05-17T11:53:50.582Z,42.33
2018-05-17T11:56:19.137Z,42.73
2018-05-17T11:58:47.344Z,42.70
2018-05-17T12:01:16.601Z,43.10
2018-05-17T12:03:45.738Z,42.67
2018-05-17T12:06:14.866Z,43.30
2018-05-17T12:08:43.596Z,42.83
2018-05-17T12:11:11.798Z,43.07
2018-05-17T12:13:40.058Z,42.73
2018-05-17T12:16:08.247Z,43.47
2018-05-17T12:18:36.468Z,42.60
2018-05-17T12:21:04.662Z,43.20
2018-05-17T12:23:33.661Z,43.63
2018-05-17T12:26:02.684Z,43.57
2018-05-17T12:28:31.807Z,43.27
2018-05-17T12:31:00.004Z,43.10
2018-05-17T12:33:28.224Z,43.27
2018-05-17T12:35:57.211Z,42.63
2018-05-17T12:38:25.421Z,43.17
2018-05-17T12:40:53.616Z,43.13
2018-05-17T12:43:21.826Z,43.53
2018-05-17T12:45:50.535Z,43.27
2018-05-17T12:48:18.741Z,44.10
2018-05-17T12:50:46.941Z,43.93
2018-05-17T12:53:15.944Z,44.73
2018-05-17T12:55:44.152Z,43.80
2018-05-17T12:58:12.332Z,45.00
2018-05-17T13:00:40.498Z,44.07
2018-05-17T13:03:08.709Z,44.33
2018-05-17T13:05:36.881Z,43.97
2018-05-17T13:08:05.058Z,44.03
2018-05-17T13:10:33.252Z,43.17
2018-05-17T13:13:02.304Z,43.60
2018-05-17T13:15:30.502Z,43.90
2018-05-17T13:17:58.715Z,43.67
2018-05-17T13:20:27.768Z,43.63
2018-05-17T13:22:55.957Z,44.03
2018-05-17T13:25:25.046Z,43.73
2018-05-17T13:27:53.226Z,43.60
2018-05-17T13:30:21.568Z,43.50
2018-05-17T13:32:50.642Z,43.40
2018-05-17T13:35:18.873Z,44.13
2018-05-17T13:37:47.209Z,43.43
2018-05-17T13:40:15.611Z,43.67
2018-05-17T13:42:44.613Z,43.73
2018-05-17T13:45:12.787Z,44.53
2018-05-17T13:47:41.057Z,43.83
2018-05-17T13:50:10.897Z,44.70
2018-05-17T13:52:39.941Z,44.60
2018-05-17T13:55:08.145Z,44.23
2018-05-17T13:57:36.494Z,44.67
2018-05-17T14:00:05.518Z,44.57
2018-05-17T14:02:35.093Z,44.70
2018-05-17T14:05:03.312Z,44.77
2018-05-17T14:07:32.445Z,45.37
2018-05-17T14:10:01.213Z,44.73
2018-05-17T14:12:29.431Z,45.40
2018-05-17T14:14:57.613Z,45.53
2018-05-17T14:17:25.987Z,46.37
2018-05-17T14:19:54.880Z,45.73
2018-05-17T14:22:23.053Z,45.43
2018-05-17T14:24:51.254Z,46.20
2018-05-17T14:27:19.474Z,45.57
2018-05-17T14:29:48.032Z,46.40
2018-05-17T14:32:18.436Z,46.57
2018-05-17T14:34:46.633Z,46.57
2018-05-17T14:37:15.401Z,45.97
2018-05-17T14:39:44.563Z,47.10
2018-05-17T14:42:12.821Z,46.17
2018-05-17T14:44:41.064Z,46.67
2018-05-17T14:47:09.270Z,46.43
2018-05-17T14:49:38.195Z,46.63
2018-05-17T14:52:07.207Z,46.33
2018-05-17T14:54:35.418Z,45.93
2018-05-17T14:57:03.634Z,46.60
2018-05-17T14:59:31.838Z,46.00
2018-05-17T15:02:00.067Z,45.93
2018-05-17T15:04:28.254Z,46.40
2018-05-17T15:06:56.611Z,46.53
2018-05-17T15:09:25.355Z,46.83
2018-05-17T15:11:53.528Z,46.40
2018-05-17T15:14:21.706Z,47.10
2018-05-17T15:16:49.916Z,46.57
2018-05-17T15:19:18.904Z,46.40
2018-05-17T15:21:47.880Z,46.57
2018-05-17T15:24:16.133Z,47.20
2018-05-17T15:26:44.308Z,46.77
2018-05-17T15:29:13.305Z,46.33
2018-05-17T15:31:41.505Z,46.47
2018-05-17T15:34:09.701Z,46.77
2018-05-17T15:36:38.602Z,46.07
2018-05-17T15:39:06.844Z,46.23
2018-05-17T15:41:35.124Z,46.67
2018-05-17T15:44:03.312Z,46.30
2018-05-17T15:46:32.449Z,47.43
2018-05-17T15:49:00.727Z,47.30
2018-05-17T15:51:29.739Z,46.80
2018-05-17T15:53:57.974Z,46.73
2018-05-17T15:56:26.601Z,46.80
2018-05-17T15:58:54.777Z,46.90
2018-05-17T16:01:22.966Z,46.57
2018-05-17T16:03:51.143Z,46.73
2018-05-17T16:06:20.805Z,47.20
2018-05-17T16:08:50.053Z,46.60
2018-05-17T16:11:19.057Z,46.77
2018-05-17T16:13:48.034Z,46.43
2018-05-17T16:16:16.232Z,47.03
2018-05-17T16:18:46.504Z,46.63
2018-05-17T16:21:15.148Z,46.67
2018-05-17T16:23:43.784Z,46.50
2018-05-17T16:26:12.093Z,46.33
2018-05-17T16:28:41.217Z,46.77
2018-05-17T16:31:09.433Z,46.53
2018-05-17T16:33:37.623Z,46.30
2018-05-17T16:36:05.859Z,46.33
2018-05-17T16:38:34.119Z,46.53
2018-05-17T16:41:02.326Z,45.63
2018-05-17T16:43:30.621Z,46.23
2018-05-17T16:45:59.623Z,46.10
2018-05-17T16:48:28.000Z,46.17
2018-05-17T16:50:56.163Z,46.37
2018-05-17T16:53:24.695Z,46.63
2018-05-17T16:55:52.846Z,47.33
2018-05-17T16:58:22.460Z,46.93
2018-05-17T17:00:50.637Z,47.50
2018-05-17T17:03:19.595Z,47.03
2018-05-17T17:05:47.816Z,47.30
2018-05-17T17:08:16.062Z,46.30
2018-05-17T17:10:45.338Z,46.40
2018-05-17T17:13:13.717Z,46.47
2018-05-17T17:15:42.589Z,46.73
2018-05-17T17:18:10.791Z,46.20
2018-05-17T17:20:39.304Z,46.00
2018-05-17T17:23:07.623Z,46.10
2018-05-17T17:25:36.004Z,45.97
2018-05-17T17:28:04.260Z,45.63
2018-05-17T17:30:33.384Z,45.37
2018-05-17T17:33:01.590Z,45.40
2018-05-17T17:35:29.785Z,45.97
2018-05-17T17:37:59.832Z,45.03
2018-05-17T17:40:34.302Z,45.67
2018-05-17T17:43:02.514Z,45.53
2018-05-17T17:45:31.553Z,46.43
2018-05-17T17:47:59.887Z,46.90
2018-05-17T17:50:28.109Z,45.90
2018-05-17T17:52:57.453Z,45.97
2018-05-17T17:55:27.308Z,47.20
2018-05-17T17:57:56.941Z,47.57
2018-05-17T18:00:26.579Z,50.27
2018-05-17T18:02:55.769Z,50.57
2018-05-17T18:05:24.753Z,47.20
2018-05-17T18:07:54.135Z,53.73
2018-05-17T18:10:22.912Z,49.93
2018-05-17T18:12:52.877Z,51.13
2018-05-17T18:15:21.122Z,47.80
2018-05-17T18:17:49.298Z,47.43
2018-05-17T18:20:17.526Z,47.67
2018-05-17T18:22:45.807Z,51.27
2018-05-17T18:25:13.936Z,49.87
2018-05-17T18:27:43.454Z,49.87
2018-05-17T18:30:15.408Z,52.97
2018-05-17T18:32:44.489Z,50.70
2018-05-17T18:35:12.620Z,52.57
2018-05-17T18:37:42.001Z,56.37
2018-05-17T18:40:13.558Z,49.37
2018-05-17T18:42:42.335Z,51.87
2018-05-17T18:45:10.596Z,51.97
2018-05-17T18:47:38.796Z,54.70
2018-05-17T18:50:07.896Z,45.43
2018-05-17T18:52:36.090Z,50.60
2018-05-17T18:55:04.998Z,50.20
2018-05-17T18:57:33.172Z,46.93
2018-05-17T19:00:02.305Z,44.83
2018-05-17T19:02:32.096Z,46.53
2018-05-17T19:05:04.708Z,45.37
2018-05-17T19:07:33.579Z,46.93
2018-05-17T19:10:02.683Z,45.43
2018-05-17T19:12:31.246Z,45.50
2018-05-17T19:14:59.452Z,44.57
2018-05-17T19:17:27.737Z,44.43
2018-05-17T19:19:55.884Z,46.47
2018-05-17T19:22:24.944Z,44.67
2018-05-17T19:24:53.220Z,44.47
2018-05-17T19:27:21.419Z,45.00
2018-05-17T19:29:49.616Z,44.33
2018-05-17T19:32:18.560Z,44.43
2018-05-17T19:34:46.847Z,44.27
2018-05-17T19:37:16.124Z,44.83
2018-05-17T19:39:44.213Z,43.40
2018-05-17T19:42:12.729Z,43.30
2018-05-17T19:44:42.426Z,43.27
2018-05-17T19:47:10.712Z,43.07
2018-05-17T19:49:38.888Z,43.00
2018-05-17T19:52:07.114Z,44.70
2018-05-17T19:54:35.293Z,45.33
2018-05-17T19:57:03.512Z,43.60
2018-05-17T19:59:32.957Z,43.17
2018-05-17T20:02:02.312Z,43.40
2018-05-17T20:04:30.528Z,43.17
2018-05-17T20:06:58.811Z,44.23
2018-05-17T20:09:27.766Z,42.63
2018-05-17T20:11:57.236Z,42.33
2018-05-17T20:14:26.316Z,41.93
2018-05-17T20:16:54.522Z,43.63
2018-05-17T20:19:22.753Z,42.60
2018-05-17T20:21:50.979Z,42.87
2018-05-17T20:24:19.205Z,43.53
2018-05-17T20:26:51.251Z,42.50
2018-05-17T20:29:19.495Z,44.47
2018-05-17T20:31:47.716Z,43.33
2018-05-17T20:34:16.028Z,42.10
2018-05-17T20:36:44.268Z,41.40
2018-05-17T20:39:12.480Z,42.00
2018-05-17T20:41:40.713Z,44.17
2018-05-17T20:44:09.824Z,43.03
2018-05-17T20:46:38.023Z,41.80
2018-05-17T20:49:06.297Z,42.03
2018-05-17T20:51:34.480Z,41.60
2018-05-17T20:54:02.670Z,41.87
2018-05-17T20:56:30.883Z,42.80
2018-05-17T20:58:59.153Z,42.87
2018-05-17T21:01:27.368Z,41.57
2018-05-17T21:03:57.216Z,41.50
2018-05-17T21:06:25.409Z,41.73
2018-05-17T21:08:53.592Z,41.70
2018-05-17T21:11:21.807Z,41.30
2018-05-17T21:13:50.007Z,41.70
2018-05-17T21:16:18.460Z,41.03
2018-05-17T21:18:46.664Z,41.40
2018-05-17T21:21:14.877Z,41.60
2018-05-17T21:23:44.307Z,41.13
2018-05-17T21:26:13.629Z,41.67
2018-05-17T21:28:42.600Z,40.90
2018-05-17T21:31:12.011Z,40.60
2018-05-17T21:33:41.467Z,41.13
2018-05-17T21:36:10.534Z,41.50
2018-05-17T21:38:38.787Z,40.60
2018-05-17T21:41:08.007Z,40.70
2018-05-17T21:43:37.051Z,40.37
2018-05-17T21:46:06.416Z,40.83
2018-05-17T21:48:34.625Z,40.67
2018-05-17T21:51:03.949Z,40.33
2018-05-17T21:53:32.173Z,40.33
2018-05-17T21:56:00.354Z,40.63
2018-05-17T21:58:32.745Z,40.77
2018-05-17T22:01:01.189Z,40.10
2018-05-17T22:03:29.449Z,40.30
2018-05-17T22:05:57.990Z,40.50
2018-05-17T22:08:26.225Z,40.37
2018-05-17T22:10:54.424Z,40.03
2018-05-17T22:13:22.653Z,39.77
2018-05-17T22:15:51.257Z,40.37
2018-05-17T22:18:19.506Z,40.57
2018-05-17T22:20:47.784Z,39.63
2018-05-17T22:23:15.987Z,39.07
2018-05-17T22:25:44.172Z,40.37
2018-05-17T22:28:13.209Z,39.97
2018-05-17T22:30:45.085Z,40.07
2018-05-17T22:33:13.285Z,39.53
2018-05-17T22:35:42.286Z,39.97
2018-05-17T22:38:11.820Z,39.47
2018-05-17T22:40:40.983Z,39.80
2018-05-17T22:43:10.023Z,40.17
2018-05-17T22:45:38.230Z,40.03
2018-05-17T22:48:06.437Z,39.87
2018-05-17T22:50:34.630Z,39.60
2018-05-17T22:53:03.261Z,39.53
2018-05-17T22:55:31.501Z,40.10
2018-05-17T22:58:18.147Z,39.87
2018-05-17T23:00:46.492Z,70.57
2018-05-17T23:03:14.669Z,39.97
2018-05-17T23:05:42.869Z,39.37
2018-05-17T23:08:11.047Z,39.43
2018-05-17T23:10:39.246Z,39.00
2018-05-17T23:13:07.478Z,39.00
2018-05-17T23:15:36.667Z,39.07
2018-05-17T23:18:05.249Z,40.30
2018-05-17T23:20:33.489Z,39.57
2018-05-17T23:23:01.664Z,39.87
2018-05-17T23:25:29.904Z,39.13
2018-05-17T23:27:58.111Z,39.23
2018-05-17T23:30:26.325Z,39.17
2018-05-17T23:32:54.528Z,39.17
2018-05-17T23:35:22.842Z,39.57
2018-05-17T23:37:51.036Z,39.43
2018-05-17T23:40:36.869Z,39.43
2018-05-17T23:43:05.046Z,39.20
2018-05-17T23:45:33.217Z,39.10
2018-05-17T23:48:01.420Z,39.63
2018-05-17T23:50:29.603Z,39.30
2018-05-17T23:52:57.791Z,39.43
2018-05-17T23:55:25.989Z,39.23
2018-05-17T23:57:54.181Z,39.23
